Grand Marais, Michigan
Current Conditions -  °F | °C
As of 3:55 AM on Wednesday 26 Nov 2014 (Local Time) from KERY Reporting Station
Scattered Clouds Scattered Clouds  
Wind Chill:   Ceiling: Unl
Heat Index:   Visibility: 10mi
Dew Point:   Wind: 0mph
Humidity: 91%   Direction: NA
Pressure: 30.16"   Gusts: NA
Location:  46.67°N, 85.99°W
Report Text: KERY 260855Z AUTO 00000KT 10SM SCT030 M13/M14 A3016 RMK AO2 T11271139
Loading
Personal Weather Stations






























Interactive Weather Map New forecast layout! Learn more

10-Day Weather Forecast

Advertisements
Track Severe Weather on mobile